createdAt,value
2023-04-23T00:01:29.179Z,-2.20
2023-04-23T00:06:34.725Z,-2.12
2023-04-23T00:11:39.021Z,-1.99
2023-04-23T00:16:43.497Z,-1.81
2023-04-23T00:21:47.618Z,-1.68
2023-04-23T00:26:53.982Z,-1.45
2023-04-23T00:31:59.199Z,-1.31
2023-04-23T00:37:07.108Z,-1.07
2023-04-23T00:42:13.131Z,-0.77
2023-04-23T00:47:19.083Z,-0.46
2023-04-23T00:52:23.480Z,-0.08
2023-04-23T00:57:28.387Z,0.39
2023-04-23T01:02:32.978Z,0.85
2023-04-23T01:07:38.642Z,1.24
2023-04-23T01:12:42.584Z,1.63
2023-04-23T01:17:47.231Z,1.94
2023-04-23T01:22:54.851Z,2.44
2023-04-23T01:27:59.468Z,2.33
2023-04-23T01:33:06.312Z,3.07
2023-04-23T01:38:12.678Z,3.41
2023-04-23T01:43:18.222Z,3.88
2023-04-23T01:48:22.555Z,4.26
2023-04-23T01:53:26.662Z,4.59
2023-04-23T01:58:30.685Z,4.90
2023-04-23T02:03:35.484Z,4.99
2023-04-23T02:08:40.699Z,5.49
2023-04-23T02:13:44.724Z,5.74
2023-04-23T02:18:48.681Z,6.05
2023-04-23T02:23:54.362Z,6.24
2023-04-23T02:28:58.339Z,6.36
2023-04-23T02:34:02.513Z,6.26
2023-04-23T02:39:07.285Z,6.99
2023-04-23T02:44:11.423Z,7.13
2023-04-23T02:49:15.527Z,7.37
2023-04-23T02:54:19.727Z,7.65
2023-04-23T02:59:24.116Z,7.99
2023-04-23T03:04:28.475Z,8.25
2023-04-23T03:09:32.917Z,8.40
2023-04-23T03:14:37.198Z,8.63
2023-04-23T03:19:41.945Z,8.66
2023-04-23T03:24:46.844Z,8.92
2023-04-23T03:30:10.681Z,9.14
2023-04-23T03:35:14.849Z,9.34
2023-04-23T03:40:22.849Z,9.38
2023-04-23T03:45:31.984Z,9.40
2023-04-23T03:50:39.706Z,9.51
2023-04-23T03:56:01.164Z,9.49
2023-04-23T04:01:08.435Z,9.41
2023-04-23T04:06:12.844Z,9.66
2023-04-23T04:11:17.013Z,9.72
2023-04-23T04:16:21.020Z,9.78
2023-04-23T04:21:25.117Z,9.82
2023-04-23T04:26:30.264Z,10.00
2023-04-23T04:31:35.612Z,10.17
2023-04-23T04:36:40.062Z,10.18
2023-04-23T04:41:44.378Z,10.31
2023-04-23T04:46:48.943Z,10.48
2023-04-23T04:51:54.938Z,10.60
2023-04-23T04:56:58.820Z,10.65
2023-04-23T05:02:02.820Z,10.64
2023-04-23T05:07:06.908Z,10.77
2023-04-23T05:12:10.846Z,10.75
2023-04-23T05:17:14.768Z,10.87
2023-04-23T05:22:18.917Z,10.86
2023-04-23T05:27:23.062Z,10.93
2023-04-23T05:32:27.362Z,10.95
2023-04-23T05:37:31.743Z,10.91
2023-04-23T05:42:37.691Z,10.84
2023-04-23T05:47:41.928Z,10.84
2023-04-23T05:52:46.227Z,10.86
2023-04-23T05:57:50.242Z,10.75
2023-04-23T06:02:54.719Z,10.55
2023-04-23T06:07:59.439Z,10.53
2023-04-23T06:13:03.787Z,10.61
2023-04-23T06:18:08.051Z,10.76
2023-04-23T06:23:14.265Z,10.90
2023-04-23T06:28:18.181Z,10.97
2023-04-23T06:33:48.009Z,10.91
2023-04-23T06:38:52.224Z,11.02
2023-04-23T06:43:56.622Z,11.05
2023-04-23T06:49:13.282Z,11.30
2023-04-23T06:54:17.328Z,11.60
2023-04-23T06:59:21.492Z,12.00
2023-04-23T07:04:29.672Z,11.92
2023-04-23T07:09:33.823Z,11.69
2023-04-23T07:14:37.866Z,11.48
2023-04-23T07:19:41.720Z,11.48
2023-04-23T07:24:45.910Z,11.62
2023-04-23T07:29:49.859Z,12.03
2023-04-23T07:34:53.921Z,12.11
2023-04-23T07:39:58.173Z,12.11
2023-04-23T07:45:02.386Z,12.04
2023-04-23T07:50:08.984Z,11.97
2023-04-23T07:55:12.805Z,11.96
2023-04-23T08:00:17.197Z,12.02
2023-04-23T08:05:21.282Z,12.10
2023-04-23T08:10:25.468Z,12.72
2023-04-23T08:15:29.486Z,12.96
2023-04-23T08:20:33.728Z,12.61
2023-04-23T08:25:37.787Z,12.54
2023-04-23T08:30:41.885Z,12.22
2023-04-23T08:35:45.875Z,12.32
2023-04-23T08:40:52.284Z,12.22
2023-04-23T08:45:57.388Z,11.98
2023-04-23T08:51:04.835Z,11.93
2023-04-23T08:56:09.473Z,11.82
2023-04-23T09:01:15.461Z,11.82
2023-04-23T09:06:21.445Z,11.68
2023-04-23T09:11:28.065Z,11.68
2023-04-23T09:16:32.268Z,11.53
2023-04-23T09:21:40.703Z,11.50
2023-04-23T09:26:53.231Z,11.68
2023-04-23T09:32:03.855Z,12.29
2023-04-23T09:37:12.721Z,12.09
2023-04-23T09:42:17.242Z,12.35
2023-04-23T09:47:22.596Z,12.82
2023-04-23T09:52:30.243Z,13.04
2023-04-23T09:57:42.112Z,12.47
2023-04-23T10:02:50.773Z,11.97
2023-04-23T10:07:56.024Z,11.55
2023-04-23T10:13:01.105Z,11.24
2023-04-23T10:18:08.676Z,11.59
2023-04-23T10:23:13.792Z,11.34
2023-04-23T10:28:27.447Z,11.14
2023-04-23T10:33:37.650Z,10.93
2023-04-23T10:38:57.959Z,10.83
2023-04-23T10:44:07.965Z,10.73
2023-04-23T10:49:15.666Z,10.70
2023-04-23T10:54:21.028Z,10.66
2023-04-23T10:59:25.868Z,10.60
2023-04-23T11:04:31.122Z,10.25
2023-04-23T11:10:00.477Z,10.61
2023-04-23T11:15:20.165Z,10.63
2023-04-23T11:20:25.243Z,10.56
2023-04-23T11:25:31.147Z,10.58
2023-04-23T11:30:35.289Z,10.56
2023-04-23T11:35:41.971Z,10.59
2023-04-23T11:40:49.462Z,10.60
2023-04-23T11:45:53.663Z,10.29
2023-04-23T11:50:58.072Z,10.64
2023-04-23T11:56:02.030Z,10.59
2023-04-23T12:01:06.182Z,10.42
2023-04-23T12:06:10.277Z,10.34
2023-04-23T12:11:14.702Z,10.11
2023-04-23T12:16:18.782Z,9.93
2023-04-23T12:21:24.720Z,9.35
2023-04-23T12:26:30.440Z,9.50
2023-04-23T12:31:34.798Z,9.71
2023-04-23T12:36:41.637Z,9.73
2023-04-23T12:41:45.996Z,9.59
2023-04-23T12:47:04.093Z,9.44
2023-04-23T12:52:12.099Z,9.21
2023-04-23T12:57:22.487Z,9.07
2023-04-23T13:02:27.098Z,8.84
2023-04-23T13:07:31.164Z,8.62
2023-04-23T13:12:35.349Z,8.35
2023-04-23T13:17:39.718Z,8.37
2023-04-23T13:22:43.784Z,8.23
2023-04-23T13:27:47.879Z,8.15
2023-04-23T13:32:51.848Z,8.04
2023-04-23T13:37:56.173Z,7.76
2023-04-23T13:43:00.133Z,7.53
2023-04-23T13:48:05.888Z,7.32
2023-04-23T13:53:11.653Z,7.02
2023-04-23T13:58:15.936Z,6.68
2023-04-23T14:03:21.061Z,6.40
2023-04-23T14:08:25.175Z,6.28
2023-04-23T14:13:29.345Z,6.15
2023-04-23T14:18:33.621Z,5.62
2023-04-23T14:23:37.860Z,5.92
2023-04-23T14:28:49.130Z,5.67
2023-04-23T14:33:53.129Z,5.11
2023-04-23T14:39:00.007Z,5.47
2023-04-23T14:44:04.607Z,5.30
2023-04-23T14:49:08.672Z,5.10
2023-04-23T14:54:12.795Z,4.94
2023-04-23T14:59:16.904Z,4.64
2023-04-23T15:04:21.156Z,4.64
2023-04-23T15:09:25.838Z,4.54
2023-04-23T15:14:37.653Z,4.41
2023-04-23T15:19:41.831Z,4.31
2023-04-23T15:24:45.966Z,4.12
2023-04-23T15:29:50.002Z,4.08
2023-04-23T15:34:54.483Z,4.11
2023-04-23T15:39:59.238Z,3.98
2023-04-23T15:45:04.781Z,3.80
2023-04-23T15:50:10.900Z,3.75
2023-04-23T15:55:15.002Z,3.79
2023-04-23T16:00:19.911Z,3.76
2023-04-23T16:05:25.795Z,3.64
2023-04-23T16:10:32.391Z,3.55
2023-04-23T16:15:37.215Z,3.55
2023-04-23T16:20:41.856Z,3.51
2023-04-23T16:25:46.064Z,3.51
2023-04-23T16:30:50.004Z,3.33
2023-04-23T16:35:54.877Z,3.35
2023-04-23T16:40:59.188Z,3.38
2023-04-23T16:46:03.090Z,3.32
2023-04-23T16:51:07.191Z,2.91
2023-04-23T16:56:11.582Z,3.15
2023-04-23T17:01:18.493Z,3.30
2023-04-23T17:06:31.298Z,3.19
2023-04-23T17:11:35.925Z,3.37
2023-04-23T17:16:40.004Z,3.33
2023-04-23T17:21:44.248Z,3.39
2023-04-23T17:26:48.893Z,3.46
2023-04-23T17:31:52.987Z,3.65
2023-04-23T17:36:57.582Z,3.65
2023-04-23T17:42:02.819Z,4.02
2023-04-23T17:47:06.969Z,4.29
2023-04-23T17:52:11.175Z,4.50
2023-04-23T17:57:15.386Z,4.62
2023-04-23T18:02:19.631Z,4.75
2023-04-23T18:07:23.790Z,4.67
2023-04-23T18:12:29.471Z,4.96
2023-04-23T18:17:33.293Z,5.06
2023-04-23T18:22:39.000Z,5.08
2023-04-23T18:27:42.842Z,5.15
2023-04-23T18:32:56.440Z,5.19
2023-04-23T18:38:11.127Z,5.29
2023-04-23T18:43:15.216Z,5.30
2023-04-23T18:48:42.486Z,5.42
2023-04-23T18:53:47.654Z,5.65
2023-04-23T18:58:51.807Z,5.85
2023-04-23T19:03:57.407Z,5.90
2023-04-23T19:09:02.148Z,5.95
2023-04-23T19:14:06.378Z,5.96
2023-04-23T19:19:10.286Z,5.97
2023-04-23T19:24:14.313Z,6.06
2023-04-23T19:29:18.497Z,6.14
2023-04-23T19:34:22.632Z,6.19
2023-04-23T19:39:27.757Z,6.24
2023-04-23T19:44:31.775Z,6.26
2023-04-23T19:49:35.850Z,6.27
2023-04-23T19:54:39.798Z,6.22
2023-04-23T19:59:44.201Z,6.19
2023-04-23T20:04:48.294Z,6.17
2023-04-23T20:09:52.412Z,6.12
2023-04-23T20:14:56.958Z,6.10
2023-04-23T20:20:02.554Z,6.07
2023-04-23T20:25:08.857Z,6.07
2023-04-23T20:30:15.868Z,6.09
2023-04-23T20:35:19.816Z,6.01
2023-04-23T20:40:24.102Z,6.01
2023-04-23T20:45:28.610Z,5.80
2023-04-23T20:50:32.550Z,5.90
2023-04-23T20:55:37.711Z,5.69
2023-04-23T21:00:42.515Z,5.56
2023-04-23T21:05:46.524Z,5.47
2023-04-23T21:10:50.707Z,5.47
2023-04-23T21:15:54.819Z,5.32
2023-04-23T21:20:59.041Z,5.13
2023-04-23T21:26:03.261Z,5.10
2023-04-23T21:31:15.040Z,5.05
2023-04-23T21:36:19.072Z,5.09
2023-04-23T21:41:23.035Z,5.16
2023-04-23T21:46:27.609Z,5.10
2023-04-23T21:51:31.625Z,5.22
2023-04-23T21:56:36.375Z,5.07
2023-04-23T22:01:40.346Z,5.14
2023-04-23T22:06:45.158Z,5.18
2023-04-23T22:12:00.987Z,5.21
2023-04-23T22:17:08.310Z,5.23
2023-04-23T22:22:12.270Z,5.11
2023-04-23T22:27:16.454Z,5.09
2023-04-23T22:32:20.396Z,4.97
2023-04-23T22:37:25.008Z,5.01
2023-04-23T22:42:29.197Z,4.91
2023-04-23T22:47:33.711Z,4.49
2023-04-23T22:52:37.661Z,4.82
2023-04-23T22:57:41.587Z,4.79
2023-04-23T23:02:45.867Z,4.77
2023-04-23T23:07:50.014Z,4.79
2023-04-23T23:12:54.217Z,4.78
2023-04-23T23:17:58.508Z,4.57
2023-04-23T23:23:02.502Z,4.96
2023-04-23T23:28:06.731Z,4.90
2023-04-23T23:33:10.791Z,5.08
2023-04-23T23:38:14.812Z,5.19
2023-04-23T23:43:18.992Z,5.30
2023-04-23T23:48:23.057Z,5.22
2023-04-23T23:53:27.334Z,5.14
2023-04-23T23:58:31.442Z,5.25
